sensor_id;sensor_type;location;lat;lon;timestamp;P1;durP1;ratioP1;P2;durP2;ratioP2
48002;SDS011;33768;48.578;11.574;2022-08-01T00:00:40;2.80;;;2.10;;
48002;SDS011;33768;48.578;11.574;2022-08-01T00:03:44;3.17;;;2.30;;
48002;SDS011;33768;48.578;11.574;2022-08-01T00:06:49;2.20;;;1.90;;
48002;SDS011;33768;48.578;11.574;2022-08-01T00:09:53;4.00;;;2.00;;
48002;SDS011;33768;48.578;11.574;2022-08-01T00:12:57;2.73;;;2.10;;
48002;SDS011;33768;48.578;11.574;2022-08-01T00:16:02;3.50;;;1.97;;
48002;SDS011;33768;48.578;11.574;2022-08-01T00:19:06;2.80;;;1.93;;
48002;SDS011;33768;48.578;11.574;2022-08-01T00:22:10;2.50;;;1.90;;
48002;SDS011;33768;48.578;11.574;2022-08-01T00:25:14;4.60;;;2.13;;
48002;SDS011;33768;48.578;11.574;2022-08-01T00:28:18;2.23;;;1.90;;
48002;SDS011;33768;48.578;11.574;2022-08-01T00:31:22;2.10;;;1.80;;
48002;SDS011;33768;48.578;11.574;2022-08-01T00:34:27;2.90;;;2.10;;
48002;SDS011;33768;48.578;11.574;2022-08-01T00:37:31;3.07;;;2.23;;
48002;SDS011;33768;48.578;11.574;2022-08-01T00:40:35;2.33;;;2.13;;
48002;SDS011;33768;48.578;11.574;2022-08-01T00:43:39;2.87;;;1.90;;
48002;SDS011;33768;48.578;11.574;2022-08-01T00:46:43;2.27;;;1.87;;
48002;SDS011;33768;48.578;11.574;2022-08-01T00:49:48;4.70;;;1.93;;
48002;SDS011;33768;48.578;11.574;2022-08-01T00:52:52;3.93;;;2.10;;
48002;SDS011;33768;48.578;11.574;2022-08-01T00:55:58;2.80;;;1.80;;
48002;SDS011;33768;48.578;11.574;2022-08-01T00:59:03;2.90;;;2.00;;
48002;SDS011;33768;48.578;11.574;2022-08-01T01:02:09;2.30;;;2.00;;
48002;SDS011;33768;48.578;11.574;2022-08-01T01:05:13;3.60;;;2.20;;
48002;SDS011;33768;48.578;11.574;2022-08-01T01:08:19;3.90;;;1.90;;
48002;SDS011;33768;48.578;11.574;2022-08-01T01:11:41;3.07;;;2.20;;
48002;SDS011;33768;48.578;11.574;2022-08-01T01:21:28;3.37;;;1.90;;
48002;SDS011;33768;48.578;11.574;2022-08-01T01:31:26;2.77;;;2.00;;
48002;SDS011;33768;48.578;11.574;2022-08-01T01:34:32;6.20;;;2.27;;
48002;SDS011;33768;48.578;11.574;2022-08-01T01:37:39;2.30;;;2.10;;
48002;SDS011;33768;48.578;11.574;2022-08-01T01:40:46;2.77;;;2.10;;
48002;SDS011;33768;48.578;11.574;2022-08-01T01:43:51;5.27;;;2.10;;
48002;SDS011;33768;48.578;11.574;2022-08-01T01:46:56;4.23;;;1.90;;
48002;SDS011;33768;48.578;11.574;2022-08-01T01:50:03;4.77;;;2.00;;
48002;SDS011;33768;48.578;11.574;2022-08-01T01:53:10;2.17;;;1.67;;
48002;SDS011;33768;48.578;11.574;2022-08-01T01:56:17;3.87;;;1.90;;
48002;SDS011;33768;48.578;11.574;2022-08-01T01:59:25;2.93;;;1.70;;
48002;SDS011;33768;48.578;11.574;2022-08-01T02:02:32;3.40;;;1.83;;
48002;SDS011;33768;48.578;11.574;2022-08-01T02:05:39;3.07;;;1.90;;
48002;SDS011;33768;48.578;11.574;2022-08-01T02:08:45;3.23;;;1.77;;
48002;SDS011;33768;48.578;11.574;2022-08-01T02:11:51;2.83;;;1.70;;
48002;SDS011;33768;48.578;11.574;2022-08-01T02:14:57;2.80;;;2.03;;
48002;SDS011;33768;48.578;11.574;2022-08-01T02:18:03;3.50;;;1.80;;
48002;SDS011;33768;48.578;11.574;2022-08-01T02:21:08;2.77;;;1.97;;
48002;SDS011;33768;48.578;11.574;2022-08-01T02:24:20;2.13;;;1.50;;
48002;SDS011;33768;48.578;11.574;2022-08-01T02:27:33;4.43;;;1.90;;
48002;SDS011;33768;48.578;11.574;2022-08-01T02:30:41;5.50;;;1.83;;
48002;SDS011;33768;48.578;11.574;2022-08-01T02:33:56;4.33;;;2.00;;
48002;SDS011;33768;48.578;11.574;2022-08-01T02:37:03;3.67;;;1.77;;
48002;SDS011;33768;48.578;11.574;2022-08-01T02:40:08;2.10;;;1.70;;
48002;SDS011;33768;48.578;11.574;2022-08-01T02:43:17;3.17;;;2.07;;
48002;SDS011;33768;48.578;11.574;2022-08-01T02:46:33;2.20;;;1.87;;
48002;SDS011;33768;48.578;11.574;2022-08-01T02:49:44;2.90;;;1.80;;
48002;SDS011;33768;48.578;11.574;2022-08-01T02:52:50;3.30;;;1.90;;
48002;SDS011;33768;48.578;11.574;2022-08-01T02:55:56;2.40;;;1.70;;
48002;SDS011;33768;48.578;11.574;2022-08-01T02:59:02;2.73;;;2.10;;
48002;SDS011;33768;48.578;11.574;2022-08-01T03:02:09;2.77;;;1.90;;
48002;SDS011;33768;48.578;11.574;2022-08-01T03:05:14;2.13;;;1.80;;
48002;SDS011;33768;48.578;11.574;2022-08-01T03:08:19;2.63;;;1.80;;
48002;SDS011;33768;48.578;11.574;2022-08-01T03:11:25;2.50;;;1.90;;
48002;SDS011;33768;48.578;11.574;2022-08-01T03:14:32;3.83;;;1.80;;
48002;SDS011;33768;48.578;11.574;2022-08-01T03:17:40;2.70;;;2.00;;
48002;SDS011;33768;48.578;11.574;2022-08-01T03:20:46;2.87;;;1.90;;
48002;SDS011;33768;48.578;11.574;2022-08-01T03:23:52;4.40;;;2.20;;
48002;SDS011;33768;48.578;11.574;2022-08-01T03:27:00;2.23;;;1.73;;
48002;SDS011;33768;48.578;11.574;2022-08-01T03:30:06;6.97;;;2.17;;
48002;SDS011;33768;48.578;11.574;2022-08-01T03:33:11;2.63;;;1.97;;
48002;SDS011;33768;48.578;11.574;2022-08-01T03:36:15;3.63;;;2.00;;
48002;SDS011;33768;48.578;11.574;2022-08-01T03:39:25;2.10;;;1.90;;
48002;SDS011;33768;48.578;11.574;2022-08-01T03:42:35;2.03;;;1.67;;
48002;SDS011;33768;48.578;11.574;2022-08-01T03:45:45;5.40;;;2.50;;
48002;SDS011;33768;48.578;11.574;2022-08-01T03:48:53;3.27;;;2.20;;
48002;SDS011;33768;48.578;11.574;2022-08-01T03:52:03;3.07;;;1.90;;
48002;SDS011;33768;48.578;11.574;2022-08-01T03:55:08;3.07;;;2.00;;
48002;SDS011;33768;48.578;11.574;2022-08-01T03:58:15;2.00;;;1.80;;
48002;SDS011;33768;48.578;11.574;2022-08-01T04:01:20;7.07;;;2.10;;
48002;SDS011;33768;48.578;11.574;2022-08-01T04:04:24;4.27;;;1.90;;
48002;SDS011;33768;48.578;11.574;2022-08-01T04:07:30;3.30;;;1.93;;
48002;SDS011;33768;48.578;11.574;2022-08-01T04:10:36;2.30;;;2.10;;
48002;SDS011;33768;48.578;11.574;2022-08-01T04:13:41;4.73;;;2.03;;
48002;SDS011;33768;48.578;11.574;2022-08-01T04:16:45;2.97;;;2.00;;
48002;SDS011;33768;48.578;11.574;2022-08-01T04:19:49;5.40;;;2.17;;
48002;SDS011;33768;48.578;11.574;2022-08-01T04:22:53;5.30;;;2.00;;
48002;SDS011;33768;48.578;11.574;2022-08-01T04:25:57;3.67;;;2.33;;
48002;SDS011;33768;48.578;11.574;2022-08-01T04:29:05;2.53;;;2.27;;
48002;SDS011;33768;48.578;11.574;2022-08-01T04:32:11;3.03;;;1.97;;
48002;SDS011;33768;48.578;11.574;2022-08-01T04:35:18;5.57;;;2.67;;
48002;SDS011;33768;48.578;11.574;2022-08-01T04:38:25;2.90;;;2.17;;
48002;SDS011;33768;48.578;11.574;2022-08-01T04:41:34;2.40;;;2.07;;
48002;SDS011;33768;48.578;11.574;2022-08-01T04:44:39;3.43;;;2.07;;
48002;SDS011;33768;48.578;11.574;2022-08-01T04:47:44;6.90;;;2.33;;
48002;SDS011;33768;48.578;11.574;2022-08-01T04:50:49;2.03;;;1.83;;
48002;SDS011;33768;48.578;11.574;2022-08-01T04:53:54;2.43;;;2.03;;
48002;SDS011;33768;48.578;11.574;2022-08-01T04:56:58;3.20;;;2.10;;
48002;SDS011;33768;48.578;11.574;2022-08-01T05:00:03;3.17;;;2.23;;
48002;SDS011;33768;48.578;11.574;2022-08-01T05:03:09;3.03;;;1.83;;
48002;SDS011;33768;48.578;11.574;2022-08-01T05:06:14;2.47;;;2.27;;
48002;SDS011;33768;48.578;11.574;2022-08-01T05:09:18;4.33;;;2.13;;
48002;SDS011;33768;48.578;11.574;2022-08-01T05:12:22;7.43;;;2.20;;
48002;SDS011;33768;48.578;11.574;2022-08-01T05:15:26;3.53;;;2.30;;
48002;SDS011;33768;48.578;11.574;2022-08-01T05:18:30;4.13;;;2.00;;
48002;SDS011;33768;48.578;11.574;2022-08-01T05:21:34;3.93;;;1.93;;
48002;SDS011;33768;48.578;11.574;2022-08-01T05:24:39;3.50;;;2.07;;
48002;SDS011;33768;48.578;11.574;2022-08-01T05:27:43;3.87;;;2.10;;
48002;SDS011;33768;48.578;11.574;2022-08-01T05:30:48;2.90;;;2.47;;
48002;SDS011;33768;48.578;11.574;2022-08-01T05:33:52;2.83;;;2.40;;
48002;SDS011;33768;48.578;11.574;2022-08-01T05:36:56;2.47;;;2.27;;
48002;SDS011;33768;48.578;11.574;2022-08-01T05:40:00;4.53;;;2.27;;
48002;SDS011;33768;48.578;11.574;2022-08-01T05:43:04;2.63;;;2.17;;
48002;SDS011;33768;48.578;11.574;2022-08-01T05:46:08;3.43;;;2.40;;
48002;SDS011;33768;48.578;11.574;2022-08-01T05:49:12;2.77;;;2.10;;
48002;SDS011;33768;48.578;11.574;2022-08-01T05:52:17;3.33;;;2.03;;
48002;SDS011;33768;48.578;11.574;2022-08-01T05:55:21;3.10;;;1.90;;
48002;SDS011;33768;48.578;11.574;2022-08-01T05:58:25;5.40;;;2.10;;
48002;SDS011;33768;48.578;11.574;2022-08-01T06:01:29;5.97;;;2.10;;
48002;SDS011;33768;48.578;11.574;2022-08-01T06:04:33;4.67;;;2.73;;
48002;SDS011;33768;48.578;11.574;2022-08-01T06:07:38;6.23;;;2.00;;
48002;SDS011;33768;48.578;11.574;2022-08-01T06:10:43;5.37;;;2.10;;
48002;SDS011;33768;48.578;11.574;2022-08-01T06:13:47;2.63;;;2.00;;
48002;SDS011;33768;48.578;11.574;2022-08-01T06:16:51;4.07;;;2.10;;
48002;SDS011;33768;48.578;11.574;2022-08-01T06:19:55;2.37;;;2.17;;
48002;SDS011;33768;48.578;11.574;2022-08-01T06:22:59;4.63;;;2.53;;
48002;SDS011;33768;48.578;11.574;2022-08-01T06:26:03;4.50;;;2.70;;
48002;SDS011;33768;48.578;11.574;2022-08-01T06:29:07;3.17;;;2.40;;
48002;SDS011;33768;48.578;11.574;2022-08-01T06:32:12;3.60;;;2.30;;
48002;SDS011;33768;48.578;11.574;2022-08-01T06:35:16;3.70;;;2.23;;
48002;SDS011;33768;48.578;11.574;2022-08-01T06:38:20;3.77;;;2.37;;
48002;SDS011;33768;48.578;11.574;2022-08-01T06:41:24;5.20;;;2.20;;
48002;SDS011;33768;48.578;11.574;2022-08-01T06:44:28;2.87;;;2.43;;
48002;SDS011;33768;48.578;11.574;2022-08-01T06:47:33;2.80;;;1.83;;
48002;SDS011;33768;48.578;11.574;2022-08-01T06:50:37;7.23;;;2.20;;
48002;SDS011;33768;48.578;11.574;2022-08-01T06:53:40;6.63;;;2.57;;
48002;SDS011;33768;48.578;11.574;2022-08-01T06:56:45;5.60;;;2.27;;
48002;SDS011;33768;48.578;11.574;2022-08-01T06:59:49;4.83;;;2.90;;
48002;SDS011;33768;48.578;11.574;2022-08-01T07:02:54;3.43;;;2.40;;
48002;SDS011;33768;48.578;11.574;2022-08-01T07:05:59;4.27;;;2.40;;
48002;SDS011;33768;48.578;11.574;2022-08-01T07:09:03;3.77;;;2.57;;
48002;SDS011;33768;48.578;11.574;2022-08-01T07:12:07;6.37;;;2.60;;
48002;SDS011;33768;48.578;11.574;2022-08-01T07:15:11;3.50;;;2.27;;
48002;SDS011;33768;48.578;11.574;2022-08-01T07:18:15;4.03;;;2.47;;
48002;SDS011;33768;48.578;11.574;2022-08-01T07:21:19;3.70;;;2.40;;
48002;SDS011;33768;48.578;11.574;2022-08-01T07:24:23;6.07;;;2.70;;
48002;SDS011;33768;48.578;11.574;2022-08-01T07:27:27;6.60;;;2.40;;
48002;SDS011;33768;48.578;11.574;2022-08-01T07:30:32;3.60;;;2.10;;
48002;SDS011;33768;48.578;11.574;2022-08-01T07:33:36;3.77;;;1.93;;
48002;SDS011;33768;48.578;11.574;2022-08-01T07:36:40;3.63;;;2.20;;
48002;SDS011;33768;48.578;11.574;2022-08-01T07:39:45;2.67;;;2.17;;
48002;SDS011;33768;48.578;11.574;2022-08-01T07:42:49;2.67;;;2.10;;
48002;SDS011;33768;48.578;11.574;2022-08-01T07:45:53;10.37;;;2.33;;
48002;SDS011;33768;48.578;11.574;2022-08-01T07:48:57;3.97;;;2.20;;
48002;SDS011;33768;48.578;11.574;2022-08-01T07:52:02;2.40;;;2.20;;
48002;SDS011;33768;48.578;11.574;2022-08-01T07:55:07;4.47;;;1.93;;
48002;SDS011;33768;48.578;11.574;2022-08-01T07:58:12;4.17;;;2.03;;
48002;SDS011;33768;48.578;11.574;2022-08-01T08:01:16;2.23;;;1.70;;
48002;SDS011;33768;48.578;11.574;2022-08-01T08:04:21;3.77;;;1.77;;
48002;SDS011;33768;48.578;11.574;2022-08-01T08:07:25;3.87;;;2.10;;
48002;SDS011;33768;48.578;11.574;2022-08-01T08:10:29;3.28;;;1.88;;
48002;SDS011;33768;48.578;11.574;2022-08-01T08:13:34;3.65;;;1.67;;
48002;SDS011;33768;48.578;11.574;2022-08-01T08:16:38;2.47;;;1.58;;
48002;SDS011;33768;48.578;11.574;2022-08-01T08:19:44;3.95;;;2.03;;
48002;SDS011;33768;48.578;11.574;2022-08-01T08:22:57;2.22;;;1.70;;
48002;SDS011;33768;48.578;11.574;2022-08-01T08:26:02;4.78;;;2.17;;
48002;SDS011;33768;48.578;11.574;2022-08-01T08:29:51;3.20;;;1.83;;
48002;SDS011;33768;48.578;11.574;2022-08-01T08:32:55;3.85;;;1.70;;
48002;SDS011;33768;48.578;11.574;2022-08-01T08:35:59;5.43;;;2.25;;
48002;SDS011;33768;48.578;11.574;2022-08-01T08:39:04;3.85;;;1.88;;
48002;SDS011;33768;48.578;11.574;2022-08-01T08:42:10;1.70;;;1.60;;
48002;SDS011;33768;48.578;11.574;2022-08-01T08:45:15;3.08;;;1.85;;
48002;SDS011;33768;48.578;11.574;2022-08-01T08:48:19;14.82;;;2.22;;
48002;SDS011;33768;48.578;11.574;2022-08-01T08:51:26;2.00;;;1.65;;
48002;SDS011;33768;48.578;11.574;2022-08-01T08:54:31;4.63;;;1.73;;
48002;SDS011;33768;48.578;11.574;2022-08-01T08:57:36;4.47;;;1.90;;
48002;SDS011;33768;48.578;11.574;2022-08-01T09:00:43;2.75;;;1.80;;
48002;SDS011;33768;48.578;11.574;2022-08-01T09:03:47;2.63;;;1.70;;
48002;SDS011;33768;48.578;11.574;2022-08-01T09:06:52;2.22;;;1.52;;
48002;SDS011;33768;48.578;11.574;2022-08-01T09:09:57;2.53;;;1.55;;
48002;SDS011;33768;48.578;11.574;2022-08-01T09:13:01;3.78;;;1.70;;
48002;SDS011;33768;48.578;11.574;2022-08-01T09:16:16;3.78;;;1.60;;
48002;SDS011;33768;48.578;11.574;2022-08-01T09:19:23;3.38;;;1.88;;
48002;SDS011;33768;48.578;11.574;2022-08-01T09:22:30;2.13;;;1.70;;
48002;SDS011;33768;48.578;11.574;2022-08-01T09:25:50;6.80;;;2.17;;
48002;SDS011;33768;48.578;11.574;2022-08-01T09:28:56;2.42;;;1.95;;
48002;SDS011;33768;48.578;11.574;2022-08-01T09:32:01;2.63;;;1.90;;
48002;SDS011;33768;48.578;11.574;2022-08-01T09:35:22;2.60;;;1.67;;
48002;SDS011;33768;48.578;11.574;2022-08-01T09:38:30;5.45;;;2.05;;
48002;SDS011;33768;48.578;11.574;2022-08-01T09:41:35;3.28;;;1.90;;
48002;SDS011;33768;48.578;11.574;2022-08-01T09:44:44;3.90;;;1.88;;
48002;SDS011;33768;48.578;11.574;2022-08-01T09:47:48;2.50;;;1.95;;
48002;SDS011;33768;48.578;11.574;2022-08-01T09:50:53;2.35;;;1.98;;
48002;SDS011;33768;48.578;11.574;2022-08-01T09:53:57;6.15;;;1.92;;
48002;SDS011;33768;48.578;11.574;2022-08-01T09:57:11;4.32;;;2.10;;
48002;SDS011;33768;48.578;11.574;2022-08-01T10:00:17;3.65;;;1.70;;
48002;SDS011;33768;48.578;11.574;2022-08-01T10:03:26;2.17;;;1.90;;
48002;SDS011;33768;48.578;11.574;2022-08-01T10:06:30;3.03;;;1.50;;
48002;SDS011;33768;48.578;11.574;2022-08-01T10:09:35;2.17;;;1.80;;
48002;SDS011;33768;48.578;11.574;2022-08-01T10:12:41;1.90;;;1.60;;
48002;SDS011;33768;48.578;11.574;2022-08-01T10:15:46;2.22;;;1.30;;
48002;SDS011;33768;48.578;11.574;2022-08-01T10:18:50;1.70;;;1.50;;
48002;SDS011;33768;48.578;11.574;2022-08-01T10:21:56;1.80;;;1.35;;
48002;SDS011;33768;48.578;11.574;2022-08-01T10:25:02;2.40;;;1.70;;
48002;SDS011;33768;48.578;11.574;2022-08-01T10:28:15;2.00;;;1.80;;
48002;SDS011;33768;48.578;11.574;2022-08-01T10:31:21;2.67;;;1.75;;
48002;SDS011;33768;48.578;11.574;2022-08-01T10:34:26;1.77;;;1.40;;
48002;SDS011;33768;48.578;11.574;2022-08-01T10:37:33;2.38;;;1.50;;
48002;SDS011;33768;48.578;11.574;2022-08-01T10:40:39;1.70;;;1.50;;
48002;SDS011;33768;48.578;11.574;2022-08-01T10:43:43;3.10;;;1.60;;
48002;SDS011;33768;48.578;11.574;2022-08-01T10:46:48;5.35;;;1.33;;
48002;SDS011;33768;48.578;11.574;2022-08-01T10:49:58;1.55;;;1.30;;
48002;SDS011;33768;48.578;11.574;2022-08-01T10:56:22;3.03;;;1.52;;
48002;SDS011;33768;48.578;11.574;2022-08-01T10:59:27;2.58;;;1.60;;
48002;SDS011;33768;48.578;11.574;2022-08-01T11:02:33;1.65;;;1.55;;
48002;SDS011;33768;48.578;11.574;2022-08-01T11:05:38;3.33;;;1.75;;
48002;SDS011;33768;48.578;11.574;2022-08-01T11:08:53;3.00;;;1.70;;
48002;SDS011;33768;48.578;11.574;2022-08-01T11:12:08;1.40;;;1.30;;
48002;SDS011;33768;48.578;11.574;2022-08-01T11:15:17;3.08;;;1.45;;
48002;SDS011;33768;48.578;11.574;2022-08-01T11:25:03;1.98;;;1.20;;
48002;SDS011;33768;48.578;11.574;2022-08-01T11:34:51;1.27;;;1.17;;
48002;SDS011;33768;48.578;11.574;2022-08-01T11:41:28;5.85;;;1.13;;
48002;SDS011;33768;48.578;11.574;2022-08-01T11:44:49;2.33;;;1.10;;
48002;SDS011;33768;48.578;11.574;2022-08-01T11:47:54;4.05;;;1.00;;
48002;SDS011;33768;48.578;11.574;2022-08-01T11:50:59;2.90;;;1.23;;
48002;SDS011;33768;48.578;11.574;2022-08-01T11:54:03;4.50;;;1.10;;
48002;SDS011;33768;48.578;11.574;2022-08-01T11:57:09;2.33;;;1.30;;
48002;SDS011;33768;48.578;11.574;2022-08-01T12:00:40;1.98;;;0.88;;
48002;SDS011;33768;48.578;11.574;2022-08-01T12:03:45;1.17;;;0.95;;
48002;SDS011;33768;48.578;11.574;2022-08-01T12:06:49;1.40;;;1.10;;
48002;SDS011;33768;48.578;11.574;2022-08-01T12:09:58;1.55;;;0.98;;
48002;SDS011;33768;48.578;11.574;2022-08-01T12:13:07;1.55;;;0.82;;
48002;SDS011;33768;48.578;11.574;2022-08-01T12:16:11;1.52;;;1.02;;
48002;SDS011;33768;48.578;11.574;2022-08-01T12:19:20;3.72;;;1.30;;
48002;SDS011;33768;48.578;11.574;2022-08-01T12:22:26;6.43;;;1.75;;
48002;SDS011;33768;48.578;11.574;2022-08-01T12:25:30;5.45;;;1.30;;
48002;SDS011;33768;48.578;11.574;2022-08-01T12:28:38;1.40;;;1.20;;
48002;SDS011;33768;48.578;11.574;2022-08-01T12:31:44;1.42;;;1.23;;
48002;SDS011;33768;48.578;11.574;2022-08-01T12:34:48;2.80;;;1.30;;
48002;SDS011;33768;48.578;11.574;2022-08-01T12:37:53;2.35;;;0.95;;
48002;SDS011;33768;48.578;11.574;2022-08-01T12:40:59;1.80;;;1.10;;
48002;SDS011;33768;48.578;11.574;2022-08-01T12:44:05;1.20;;;1.05;;
48002;SDS011;33768;48.578;11.574;2022-08-01T12:47:18;2.13;;;1.20;;
48002;SDS011;33768;48.578;11.574;2022-08-01T12:50:24;2.25;;;1.10;;
48002;SDS011;33768;48.578;11.574;2022-08-01T12:53:35;3.65;;;1.30;;
48002;SDS011;33768;48.578;11.574;2022-08-01T12:56:39;2.15;;;1.10;;
48002;SDS011;33768;48.578;11.574;2022-08-01T12:59:43;1.83;;;1.33;;
48002;SDS011;33768;48.578;11.574;2022-08-01T13:02:47;1.50;;;1.30;;
48002;SDS011;33768;48.578;11.574;2022-08-01T13:05:54;4.72;;;1.65;;
48002;SDS011;33768;48.578;11.574;2022-08-01T13:09:06;1.17;;;1.00;;
48002;SDS011;33768;48.578;11.574;2022-08-01T13:12:12;2.40;;;1.02;;
48002;SDS011;33768;48.578;11.574;2022-08-01T13:15:24;1.63;;;1.05;;
48002;SDS011;33768;48.578;11.574;2022-08-01T13:18:31;3.80;;;1.13;;
48002;SDS011;33768;48.578;11.574;2022-08-01T13:21:36;2.10;;;1.20;;
48002;SDS011;33768;48.578;11.574;2022-08-01T13:24:40;1.52;;;1.02;;
48002;SDS011;33768;48.578;11.574;2022-08-01T13:27:44;2.00;;;1.13;;
48002;SDS011;33768;48.578;11.574;2022-08-01T13:31:02;3.72;;;1.25;;
48002;SDS011;33768;48.578;11.574;2022-08-01T13:34:08;4.20;;;1.45;;
48002;SDS011;33768;48.578;11.574;2022-08-01T13:37:12;5.88;;;1.40;;
48002;SDS011;33768;48.578;11.574;2022-08-01T13:40:24;4.85;;;1.15;;
48002;SDS011;33768;48.578;11.574;2022-08-01T13:43:30;1.88;;;1.10;;
48002;SDS011;33768;48.578;11.574;2022-08-01T13:46:34;4.07;;;1.00;;
48002;SDS011;33768;48.578;11.574;2022-08-01T13:49:39;5.05;;;1.40;;
48002;SDS011;33768;48.578;11.574;2022-08-01T13:52:43;1.30;;;1.05;;
48002;SDS011;33768;48.578;11.574;2022-08-01T13:55:47;1.52;;;1.15;;
48002;SDS011;33768;48.578;11.574;2022-08-01T13:58:51;7.28;;;1.67;;
48002;SDS011;33768;48.578;11.574;2022-08-01T14:01:55;2.90;;;1.25;;
48002;SDS011;33768;48.578;11.574;2022-08-01T14:04:59;3.95;;;1.02;;
48002;SDS011;33768;48.578;11.574;2022-08-01T14:08:05;2.35;;;1.15;;
48002;SDS011;33768;48.578;11.574;2022-08-01T14:11:09;2.25;;;1.30;;
48002;SDS011;33768;48.578;11.574;2022-08-01T14:14:14;1.90;;;1.25;;
48002;SDS011;33768;48.578;11.574;2022-08-01T14:17:18;2.45;;;1.48;;
48002;SDS011;33768;48.578;11.574;2022-08-01T14:20:22;1.67;;;1.23;;
48002;SDS011;33768;48.578;11.574;2022-08-01T14:23:27;3.97;;;1.40;;
48002;SDS011;33768;48.578;11.574;2022-08-01T14:26:31;3.00;;;1.17;;
48002;SDS011;33768;48.578;11.574;2022-08-01T14:29:35;3.03;;;1.42;;
48002;SDS011;33768;48.578;11.574;2022-08-01T14:32:39;1.58;;;1.35;;
48002;SDS011;33768;48.578;11.574;2022-08-01T14:35:43;1.73;;;1.30;;
48002;SDS011;33768;48.578;11.574;2022-08-01T14:38:47;2.10;;;1.30;;
48002;SDS011;33768;48.578;11.574;2022-08-01T14:41:51;3.25;;;1.40;;
48002;SDS011;33768;48.578;11.574;2022-08-01T14:44:55;5.88;;;1.70;;
48002;SDS011;33768;48.578;11.574;2022-08-01T14:48:00;2.88;;;1.38;;
48002;SDS011;33768;48.578;11.574;2022-08-01T14:51:05;3.13;;;1.38;;
48002;SDS011;33768;48.578;11.574;2022-08-01T14:54:10;5.20;;;1.90;;
48002;SDS011;33768;48.578;11.574;2022-08-01T14:57:14;1.60;;;1.50;;
48002;SDS011;33768;48.578;11.574;2022-08-01T15:00:21;2.92;;;1.40;;
48002;SDS011;33768;48.578;11.574;2022-08-01T15:03:25;38.30;;;3.55;;
48002;SDS011;33768;48.578;11.574;2022-08-01T15:06:29;5.97;;;1.23;;
48002;SDS011;33768;48.578;11.574;2022-08-01T15:09:34;21.52;;;2.40;;
48002;SDS011;33768;48.578;11.574;2022-08-01T15:12:38;3.85;;;1.90;;
48002;SDS011;33768;48.578;11.574;2022-08-01T15:15:42;3.90;;;1.88;;
48002;SDS011;33768;48.578;11.574;2022-08-01T15:18:46;2.42;;;1.90;;
48002;SDS011;33768;48.578;11.574;2022-08-01T15:21:51;2.42;;;1.70;;
48002;SDS011;33768;48.578;11.574;2022-08-01T15:24:56;3.05;;;1.65;;
48002;SDS011;33768;48.578;11.574;2022-08-01T15:28:01;2.97;;;1.80;;
48002;SDS011;33768;48.578;11.574;2022-08-01T15:31:05;3.33;;;1.70;;
48002;SDS011;33768;48.578;11.574;2022-08-01T15:34:09;3.10;;;1.70;;
48002;SDS011;33768;48.578;11.574;2022-08-01T15:37:13;3.88;;;1.48;;
48002;SDS011;33768;48.578;11.574;2022-08-01T15:40:18;3.53;;;1.53;;
48002;SDS011;33768;48.578;11.574;2022-08-01T15:43:22;4.07;;;1.37;;
48002;SDS011;33768;48.578;11.574;2022-08-01T15:46:26;2.93;;;1.80;;
48002;SDS011;33768;48.578;11.574;2022-08-01T15:49:31;2.30;;;1.73;;
48002;SDS011;33768;48.578;11.574;2022-08-01T15:52:36;5.57;;;2.73;;
48002;SDS011;33768;48.578;11.574;2022-08-01T15:55:40;5.50;;;2.30;;
48002;SDS011;33768;48.578;11.574;2022-08-01T15:58:44;3.03;;;2.33;;
48002;SDS011;33768;48.578;11.574;2022-08-01T16:01:48;3.93;;;2.63;;
48002;SDS011;33768;48.578;11.574;2022-08-01T16:04:53;5.47;;;2.70;;
48002;SDS011;33768;48.578;11.574;2022-08-01T16:07:57;2.47;;;2.27;;
48002;SDS011;33768;48.578;11.574;2022-08-01T16:11:02;4.97;;;2.53;;
48002;SDS011;33768;48.578;11.574;2022-08-01T16:14:06;2.67;;;2.47;;
48002;SDS011;33768;48.578;11.574;2022-08-01T16:17:10;4.77;;;2.47;;
48002;SDS011;33768;48.578;11.574;2022-08-01T16:20:15;2.20;;;2.00;;
48002;SDS011;33768;48.578;11.574;2022-08-01T16:23:19;3.10;;;2.73;;
48002;SDS011;33768;48.578;11.574;2022-08-01T16:26:23;4.13;;;2.40;;
48002;SDS011;33768;48.578;11.574;2022-08-01T16:29:27;4.40;;;2.23;;
48002;SDS011;33768;48.578;11.574;2022-08-01T16:32:33;3.33;;;2.17;;
48002;SDS011;33768;48.578;11.574;2022-08-01T16:35:37;2.90;;;2.40;;
48002;SDS011;33768;48.578;11.574;2022-08-01T16:38:42;4.87;;;2.50;;
48002;SDS011;33768;48.578;11.574;2022-08-01T16:41:46;2.00;;;1.90;;
48002;SDS011;33768;48.578;11.574;2022-08-01T16:44:51;2.23;;;1.90;;
48002;SDS011;33768;48.578;11.574;2022-08-01T16:47:55;2.60;;;1.90;;
48002;SDS011;33768;48.578;11.574;2022-08-01T16:50:59;2.17;;;1.97;;
48002;SDS011;33768;48.578;11.574;2022-08-01T16:54:04;2.30;;;2.10;;
48002;SDS011;33768;48.578;11.574;2022-08-01T16:57:08;2.20;;;2.00;;
48002;SDS011;33768;48.578;11.574;2022-08-01T17:00:13;2.77;;;2.00;;
48002;SDS011;33768;48.578;11.574;2022-08-01T17:03:18;3.83;;;1.93;;
48002;SDS011;33768;48.578;11.574;2022-08-01T17:06:24;2.40;;;2.20;;
48002;SDS011;33768;48.578;11.574;2022-08-01T17:09:28;1.93;;;1.83;;
48002;SDS011;33768;48.578;11.574;2022-08-01T17:12:32;3.63;;;2.30;;
48002;SDS011;33768;48.578;11.574;2022-08-01T17:15:38;4.57;;;1.90;;
48002;SDS011;33768;48.578;11.574;2022-08-01T17:18:43;2.13;;;1.97;;
48002;SDS011;33768;48.578;11.574;2022-08-01T17:21:47;2.70;;;1.77;;
48002;SDS011;33768;48.578;11.574;2022-08-01T17:24:51;5.37;;;2.00;;
48002;SDS011;33768;48.578;11.574;2022-08-01T17:27:55;2.50;;;1.73;;
48002;SDS011;33768;48.578;11.574;2022-08-01T17:30:59;5.87;;;2.40;;
48002;SDS011;33768;48.578;11.574;2022-08-01T17:34:03;4.57;;;2.13;;
48002;SDS011;33768;48.578;11.574;2022-08-01T17:37:08;2.13;;;1.80;;
48002;SDS011;33768;48.578;11.574;2022-08-01T17:40:12;3.53;;;1.90;;
48002;SDS011;33768;48.578;11.574;2022-08-01T17:43:17;3.97;;;1.90;;
48002;SDS011;33768;48.578;11.574;2022-08-01T17:46:21;4.83;;;2.23;;
48002;SDS011;33768;48.578;11.574;2022-08-01T17:49:25;2.70;;;2.00;;
48002;SDS011;33768;48.578;11.574;2022-08-01T17:52:30;3.10;;;1.90;;
48002;SDS011;33768;48.578;11.574;2022-08-01T17:55:34;4.93;;;2.23;;
48002;SDS011;33768;48.578;11.574;2022-08-01T17:58:38;4.40;;;2.37;;
48002;SDS011;33768;48.578;11.574;2022-08-01T18:01:42;3.20;;;2.10;;
48002;SDS011;33768;48.578;11.574;2022-08-01T18:04:46;2.80;;;2.00;;
48002;SDS011;33768;48.578;11.574;2022-08-01T18:07:50;3.97;;;2.13;;
48002;SDS011;33768;48.578;11.574;2022-08-01T18:10:55;3.13;;;2.00;;
48002;SDS011;33768;48.578;11.574;2022-08-01T18:14:00;2.90;;;2.10;;
48002;SDS011;33768;48.578;11.574;2022-08-01T18:17:04;2.50;;;2.30;;
48002;SDS011;33768;48.578;11.574;2022-08-01T18:20:09;2.73;;;2.10;;
48002;SDS011;33768;48.578;11.574;2022-08-01T18:23:14;3.93;;;2.20;;
48002;SDS011;33768;48.578;11.574;2022-08-01T18:26:19;6.63;;;2.10;;
48002;SDS011;33768;48.578;11.574;2022-08-01T18:29:24;2.93;;;1.80;;
48002;SDS011;33768;48.578;11.574;2022-08-01T18:32:28;4.17;;;2.47;;
48002;SDS011;33768;48.578;11.574;2022-08-01T18:35:33;6.43;;;2.50;;
48002;SDS011;33768;48.578;11.574;2022-08-01T18:38:37;5.60;;;1.87;;
48002;SDS011;33768;48.578;11.574;2022-08-01T18:41:41;2.47;;;1.83;;
48002;SDS011;33768;48.578;11.574;2022-08-01T18:44:45;4.63;;;1.90;;
48002;SDS011;33768;48.578;11.574;2022-08-01T18:47:50;2.47;;;1.80;;
48002;SDS011;33768;48.578;11.574;2022-08-01T18:50:55;1.83;;;1.70;;
48002;SDS011;33768;48.578;11.574;2022-08-01T18:53:59;2.77;;;2.17;;